sensor_id;sensor_type;location;lat;lon;timestamp;pressure;altitude;pressure_sealevel;temperature;humidity
20630;BME280;17386;43.846;25.950;2023-03-25T00:00:56;100869.97;;;12.21;93.99
20630;BME280;17386;43.846;25.950;2023-03-25T00:03:25;100871.50;;;12.27;93.79
20630;BME280;17386;43.846;25.950;2023-03-25T00:05:52;100866.25;;;12.25;93.51
20630;BME280;17386;43.846;25.950;2023-03-25T00:08:17;100875.19;;;12.24;93.95
20630;BME280;17386;43.846;25.950;2023-03-25T00:10:43;100867.91;;;12.28;94.12
20630;BME280;17386;43.846;25.950;2023-03-25T00:13:09;100868.22;;;12.20;94.41
20630;BME280;17386;43.846;25.950;2023-03-25T00:15:43;100854.25;;;12.15;95.28
20630;BME280;17386;43.846;25.950;2023-03-25T00:18:12;100853.31;;;12.16;94.96
20630;BME280;17386;43.846;25.950;2023-03-25T00:20:37;100849.59;;;12.20;94.75
20630;BME280;17386;43.846;25.950;2023-03-25T00:23:07;100847.06;;;12.17;95.03
20630;BME280;17386;43.846;25.950;2023-03-25T00:25:33;100832.94;;;12.15;94.97
20630;BME280;17386;43.846;25.950;2023-03-25T00:27:59;100837.66;;;12.09;95.12
20630;BME280;17386;43.846;25.950;2023-03-25T00:30:25;100836.41;;;11.95;95.83
20630;BME280;17386;43.846;25.950;2023-03-25T00:32:51;100841.75;;;11.95;95.79
20630;BME280;17386;43.846;25.950;2023-03-25T00:35:20;100843.53;;;11.95;94.80
20630;BME280;17386;43.846;25.950;2023-03-25T00:37:47;100838.75;;;12.03;94.32
20630;BME280;17386;43.846;25.950;2023-03-25T00:40:25;100843.09;;;12.05;94.56
20630;BME280;17386;43.846;25.950;2023-03-25T00:42:52;100829.09;;;12.00;94.63
20630;BME280;17386;43.846;25.950;2023-03-25T00:45:18;100814.50;;;11.89;96.25
20630;BME280;17386;43.846;25.950;2023-03-25T00:47:43;100806.69;;;11.84;96.88
20630;BME280;17386;43.846;25.950;2023-03-25T00:50:09;100817.88;;;11.92;95.19
20630;BME280;17386;43.846;25.950;2023-03-25T00:52:35;100814.59;;;11.86;97.20
20630;BME280;17386;43.846;25.950;2023-03-25T00:55:01;100808.53;;;11.82;97.28
20630;BME280;17386;43.846;25.950;2023-03-25T00:57:27;100818.41;;;11.78;98.87
20630;BME280;17386;43.846;25.950;2023-03-25T00:59:52;100805.56;;;11.66;100.00
20630;BME280;17386;43.846;25.950;2023-03-25T01:02:18;100799.25;;;11.47;100.00
20630;BME280;17386;43.846;25.950;2023-03-25T01:04:46;100804.91;;;11.38;100.00
20630;BME280;17386;43.846;25.950;2023-03-25T01:07:14;100810.44;;;11.32;100.00
20630;BME280;17386;43.846;25.950;2023-03-25T01:09:40;100808.34;;;11.16;100.00
20630;BME280;17386;43.846;25.950;2023-03-25T01:12:07;100811.66;;;11.23;100.00
20630;BME280;17386;43.846;25.950;2023-03-25T01:14:32;100811.56;;;11.26;100.00
20630;BME280;17386;43.846;25.950;2023-03-25T01:16:59;100807.34;;;11.20;100.00
20630;BME280;17386;43.846;25.950;2023-03-25T01:19:25;100809.00;;;11.23;100.00
20630;BME280;17386;43.846;25.950;2023-03-25T01:21:50;100790.81;;;11.12;100.00
20630;BME280;17386;43.846;25.950;2023-03-25T01:24:16;100803.63;;;11.24;100.00
20630;BME280;17386;43.846;25.950;2023-03-25T01:26:42;100812.59;;;11.22;100.00
20630;BME280;17386;43.846;25.950;2023-03-25T01:29:11;100809.00;;;11.23;100.00
20630;BME280;17386;43.846;25.950;2023-03-25T01:31:36;100804.84;;;11.16;100.00
20630;BME280;17386;43.846;25.950;2023-03-25T01:34:02;100803.81;;;11.20;100.00
20630;BME280;17386;43.846;25.950;2023-03-25T01:36:27;100808.34;;;11.16;100.00
20630;BME280;17386;43.846;25.950;2023-03-25T01:38:57;100801.19;;;11.18;100.00
20630;BME280;17386;43.846;25.950;2023-03-25T01:41:24;100796.63;;;11.22;100.00
20630;BME280;17386;43.846;25.950;2023-03-25T01:46:36;100797.72;;;11.16;100.00
20630;BME280;17386;43.846;25.950;2023-03-25T01:49:05;100791.44;;;11.19;100.00
20630;BME280;17386;43.846;25.950;2023-03-25T01:51:37;100791.38;;;11.20;100.00
20630;BME280;17386;43.846;25.950;2023-03-25T01:54:04;100782.63;;;11.17;100.00
20630;BME280;17386;43.846;25.950;2023-03-25T01:56:33;100778.59;;;11.07;100.00
20630;BME280;17386;43.846;25.950;2023-03-25T01:59:03;100784.66;;;11.10;100.00
20630;BME280;17386;43.846;25.950;2023-03-25T02:01:30;100776.59;;;11.13;100.00
20630;BME280;17386;43.846;25.950;2023-03-25T02:03:57;100780.91;;;11.16;100.00
20630;BME280;17386;43.846;25.950;2023-03-25T02:06:48;100775.66;;;11.14;100.00
20630;BME280;17386;43.846;25.950;2023-03-25T02:09:19;100768.53;;;11.15;100.00
20630;BME280;17386;43.846;25.950;2023-03-25T02:11:45;100755.19;;;11.16;100.00
20630;BME280;17386;43.846;25.950;2023-03-25T02:14:21;100753.44;;;11.15;100.00
20630;BME280;17386;43.846;25.950;2023-03-25T02:41:23;100743.28;;;10.80;100.00
20630;BME280;17386;43.846;25.950;2023-03-25T02:46:39;100737.69;;;10.62;100.00
20630;BME280;17386;43.846;25.950;2023-03-25T02:49:17;100728.78;;;10.63;100.00
20630;BME280;17386;43.846;25.950;2023-03-25T02:51:59;100719.66;;;10.47;100.00
20630;BME280;17386;43.846;25.950;2023-03-25T02:54:27;100730.28;;;10.47;100.00
20630;BME280;17386;43.846;25.950;2023-03-25T02:56:55;100719.84;;;10.41;100.00
20630;BME280;17386;43.846;25.950;2023-03-25T02:59:24;100718.91;;;10.44;100.00
20630;BME280;17386;43.846;25.950;2023-03-25T03:01:58;100714.41;;;10.46;100.00
20630;BME280;17386;43.846;25.950;2023-03-25T03:04:25;100719.19;;;10.34;100.00
20630;BME280;17386;43.846;25.950;2023-03-25T03:06:51;100717.88;;;10.23;100.00
20630;BME280;17386;43.846;25.950;2023-03-25T03:17:41;100712.22;;;10.05;100.00
20630;BME280;17386;43.846;25.950;2023-03-25T03:25:49;100720.59;;;9.93;100.00
20630;BME280;17386;43.846;25.950;2023-03-25T03:28:31;100713.53;;;9.92;100.00
20630;BME280;17386;43.846;25.950;2023-03-25T03:31:03;100716.31;;;9.89;100.00
20630;BME280;17386;43.846;25.950;2023-03-25T03:33:38;100724.22;;;9.91;100.00
20630;BME280;17386;43.846;25.950;2023-03-25T03:36:08;100719.25;;;9.80;100.00
20630;BME280;17386;43.846;25.950;2023-03-25T03:38:38;100721.22;;;9.75;100.00
20630;BME280;17386;43.846;25.950;2023-03-25T03:41:08;100718.44;;;9.78;100.00
20630;BME280;17386;43.846;25.950;2023-03-25T03:43:41;100712.41;;;9.73;100.00
20630;BME280;17386;43.846;25.950;2023-03-25T03:46:17;100718.44;;;9.78;100.00
20630;BME280;17386;43.846;25.950;2023-03-25T03:48:49;100715.06;;;9.73;100.00
20630;BME280;17386;43.846;25.950;2023-03-25T03:51:27;100715.84;;;9.76;100.00
20630;BME280;17386;43.846;25.950;2023-03-25T03:54:30;100718.44;;;9.78;100.00
20630;BME280;17386;43.846;25.950;2023-03-25T03:57:01;100715.00;;;9.74;100.00
20630;BME280;17386;43.846;25.950;2023-03-25T03:59:38;100707.97;;;9.73;100.00
20630;BME280;17386;43.846;25.950;2023-03-25T04:02:24;100715.91;;;9.75;100.00
20630;BME280;17386;43.846;25.950;2023-03-25T04:04:52;100720.31;;;9.74;100.00
20630;BME280;17386;43.846;25.950;2023-03-25T04:07:22;100721.97;;;9.78;100.00
20630;BME280;17386;43.846;25.950;2023-03-25T04:10:22;100723.63;;;9.81;100.00
20630;BME280;17386;43.846;25.950;2023-03-25T04:12:54;100723.63;;;9.81;100.00
20630;BME280;17386;43.846;25.950;2023-03-25T04:15:22;100713.81;;;9.84;100.00
20630;BME280;17386;43.846;25.950;2023-03-25T04:17:48;100722.50;;;9.88;100.00
20630;BME280;17386;43.846;25.950;2023-03-25T04:20:15;100726.94;;;9.89;100.00
20630;BME280;17386;43.846;25.950;2023-03-25T04:22:42;100726.88;;;9.91;100.00
20630;BME280;17386;43.846;25.950;2023-03-25T04:25:10;100733.09;;;9.90;100.00
20630;BME280;17386;43.846;25.950;2023-03-25T04:27:36;100723.50;;;9.85;100.00
20630;BME280;17386;43.846;25.950;2023-03-25T04:30:04;100732.38;;;9.84;100.00
20630;BME280;17386;43.846;25.950;2023-03-25T04:32:29;100737.63;;;9.86;100.00
20630;BME280;17386;43.846;25.950;2023-03-25T04:34:55;100735.22;;;9.78;100.00
20630;BME280;17386;43.846;25.950;2023-03-25T04:37:26;100733.13;;;9.88;100.00
20630;BME280;17386;43.846;25.950;2023-03-25T04:39:51;100729.31;;;9.97;100.00
20630;BME280;17386;43.846;25.950;2023-03-25T04:42:21;100731.78;;;10.03;100.00
20630;BME280;17386;43.846;25.950;2023-03-25T04:44:50;100739.69;;;10.04;100.00
20630;BME280;17386;43.846;25.950;2023-03-25T04:47:17;100738.63;;;10.08;100.00
20630;BME280;17386;43.846;25.950;2023-03-25T04:49:46;100734.16;;;10.10;100.00
20630;BME280;17386;43.846;25.950;2023-03-25T04:52:12;100739.38;;;10.13;100.00
20630;BME280;17386;43.846;25.950;2023-03-25T04:54:37;100741.88;;;10.18;100.00
20630;BME280;17386;43.846;25.950;2023-03-25T04:57:04;100737.38;;;10.20;100.00
20630;BME280;17386;43.846;25.950;2023-03-25T04:59:30;100738.19;;;10.24;100.00
20630;BME280;17386;43.846;25.950;2023-03-25T05:01:55;100737.31;;;10.23;100.00
20630;BME280;17386;43.846;25.950;2023-03-25T05:04:21;100738.78;;;10.32;100.00
20630;BME280;17386;43.846;25.950;2023-03-25T05:06:49;100741.03;;;10.43;100.00
20630;BME280;17386;43.846;25.950;2023-03-25T05:09:17;100743.59;;;10.46;100.00
20630;BME280;17386;43.846;25.950;2023-03-25T05:11:50;100745.41;;;10.45;100.00
20630;BME280;17386;43.846;25.950;2023-03-25T05:14:18;100733.78;;;10.48;100.00
20630;BME280;17386;43.846;25.950;2023-03-25T05:16:44;100736.16;;;10.55;99.85
20630;BME280;17386;43.846;25.950;2023-03-25T05:19:10;100737.69;;;10.62;99.52
20630;BME280;17386;43.846;25.950;2023-03-25T05:21:37;100736.22;;;10.79;99.07
20630;BME280;17386;43.846;25.950;2023-03-25T05:24:05;100739.63;;;10.82;98.50
20630;BME280;17386;43.846;25.950;2023-03-25T05:26:33;100739.25;;;10.93;98.29
20630;BME280;17386;43.846;25.950;2023-03-25T05:29:09;100746.75;;;11.05;97.52
20630;BME280;17386;43.846;25.950;2023-03-25T05:31:38;100741.47;;;11.04;96.28
20630;BME280;17386;43.846;25.950;2023-03-25T05:34:04;100737.50;;;11.15;96.33
20630;BME280;17386;43.846;25.950;2023-03-25T05:36:31;100741.34;;;11.30;95.88
20630;BME280;17386;43.846;25.950;2023-03-25T05:38:57;100739.16;;;11.41;95.08
20630;BME280;17386;43.846;25.950;2023-03-25T05:41:25;100744.66;;;11.59;94.32
20630;BME280;17386;43.846;25.950;2023-03-25T05:44:00;100750.19;;;11.76;92.53
20630;BME280;17386;43.846;25.950;2023-03-25T05:46:26;100740.59;;;11.94;91.66
20630;BME280;17386;43.846;25.950;2023-03-25T05:48:55;100750.66;;;12.09;91.27
20630;BME280;17386;43.846;25.950;2023-03-25T05:51:23;100742.88;;;12.25;89.87
20630;BME280;17386;43.846;25.950;2023-03-25T05:53:49;100744.00;;;12.40;89.20
20630;BME280;17386;43.846;25.950;2023-03-25T05:56:16;100740.81;;;12.52;88.54
20630;BME280;17386;43.846;25.950;2023-03-25T05:58:48;100744.53;;;12.68;87.95
20630;BME280;17386;43.846;25.950;2023-03-25T06:01:15;100744.72;;;12.84;87.18
20630;BME280;17386;43.846;25.950;2023-03-25T06:03:42;100742.50;;;12.94;85.57
20630;BME280;17386;43.846;25.950;2023-03-25T06:06:09;100744.22;;;12.95;85.17
20630;BME280;17386;43.846;25.950;2023-03-25T06:08:43;100740.16;;;13.06;84.68
20630;BME280;17386;43.846;25.950;2023-03-25T06:11:09;100745.28;;;13.11;84.56
20630;BME280;17386;43.846;25.950;2023-03-25T06:13:38;100742.06;;;13.23;84.29
20630;BME280;17386;43.846;25.950;2023-03-25T06:16:05;100743.22;;;13.36;82.96
20630;BME280;17386;43.846;25.950;2023-03-25T06:18:36;100738.16;;;13.30;83.44
20630;BME280;17386;43.846;25.950;2023-03-25T06:21:02;100743.66;;;13.46;82.66
20630;BME280;17386;43.846;25.950;2023-03-25T06:23:28;100745.47;;;13.46;82.94
20630;BME280;17386;43.846;25.950;2023-03-25T06:25:54;100746.94;;;13.70;82.32
20630;BME280;17386;43.846;25.950;2023-03-25T06:28:20;100752.28;;;13.70;80.87
20630;BME280;17386;43.846;25.950;2023-03-25T06:30:47;100751.91;;;13.78;81.02
20630;BME280;17386;43.846;25.950;2023-03-25T06:33:14;100756.50;;;13.93;81.18
20630;BME280;17386;43.846;25.950;2023-03-25T06:35:40;100749.00;;;14.01;80.82
20630;BME280;17386;43.846;25.950;2023-03-25T06:38:08;100749.69;;;14.05;79.80
20630;BME280;17386;43.846;25.950;2023-03-25T06:40:35;100753.13;;;14.07;78.54
20630;BME280;17386;43.846;25.950;2023-03-25T06:43:05;100750.09;;;14.14;78.08
20630;BME280;17386;43.846;25.950;2023-03-25T06:45:33;100745.53;;;14.16;76.75
20630;BME280;17386;43.846;25.950;2023-03-25T06:47:59;100753.50;;;14.35;77.05
20630;BME280;17386;43.846;25.950;2023-03-25T06:50:25;100748.47;;;14.64;76.15
20630;BME280;17386;43.846;25.950;2023-03-25T06:52:51;100758.31;;;14.63;75.22
20630;BME280;17386;43.846;25.950;2023-03-25T06:55:16;100747.00;;;14.58;76.07
20630;BME280;17386;43.846;25.950;2023-03-25T06:57:42;100752.50;;;14.88;75.80
20630;BME280;17386;43.846;25.950;2023-03-25T07:00:08;100739.78;;;15.09;74.89
20630;BME280;17386;43.846;25.950;2023-03-25T07:02:37;100754.88;;;15.43;73.43
20630;BME280;17386;43.846;25.950;2023-03-25T07:05:03;100755.59;;;15.63;72.01
20630;BME280;17386;43.846;25.950;2023-03-25T07:07:28;100750.25;;;15.63;72.16
20630;BME280;17386;43.846;25.950;2023-03-25T07:09:54;100756.63;;;15.60;72.04
20630;BME280;17386;43.846;25.950;2023-03-25T07:12:23;100747.59;;;15.78;71.40
20630;BME280;17386;43.846;25.950;2023-03-25T07:14:53;100746.09;;;15.89;70.63
20630;BME280;17386;43.846;25.950;2023-03-25T07:17:20;100750.16;;;15.80;70.83
20630;BME280;17386;43.846;25.950;2023-03-25T07:19:45;100757.06;;;15.68;71.68
20630;BME280;17386;43.846;25.950;2023-03-25T07:22:11;100749.03;;;15.68;72.00
20630;BME280;17386;43.846;25.950;2023-03-25T07:24:36;100756.47;;;15.63;72.31
20630;BME280;17386;43.846;25.950;2023-03-25T07:27:02;100744.44;;;15.70;72.47
20630;BME280;17386;43.846;25.950;2023-03-25T07:29:28;100753.63;;;15.66;72.13
20630;BME280;17386;43.846;25.950;2023-03-25T07:31:53;100751.03;;;15.65;72.30
20630;BME280;17386;43.846;25.950;2023-03-25T07:34:18;100756.81;;;15.73;70.16
20630;BME280;17386;43.846;25.950;2023-03-25T07:36:44;100757.78;;;15.72;69.81
20630;BME280;17386;43.846;25.950;2023-03-25T07:39:09;100763.19;;;16.02;68.39
20630;BME280;17386;43.846;25.950;2023-03-25T07:41:35;100765.06;;;16.16;66.08
20630;BME280;17386;43.846;25.950;2023-03-25T07:44:00;100761.31;;;16.18;67.31
20630;BME280;17386;43.846;25.950;2023-03-25T07:46:25;100767.84;;;16.14;67.54
20630;BME280;17386;43.846;25.950;2023-03-25T07:48:51;100759.56;;;16.33;67.35
20630;BME280;17386;43.846;25.950;2023-03-25T07:51:16;100763.75;;;16.67;67.82
20630;BME280;17386;43.846;25.950;2023-03-25T07:53:42;100769.97;;;16.83;68.12
20630;BME280;17386;43.846;25.950;2023-03-25T07:56:10;100744.97;;;16.97;68.02
20630;BME280;17386;43.846;25.950;2023-03-25T07:58:35;100753.13;;;17.24;67.60
20630;BME280;17386;43.846;25.950;2023-03-25T08:01:01;100751.94;;;17.42;66.91
20630;BME280;17386;43.846;25.950;2023-03-25T08:03:26;100756.66;;;17.39;66.69
20630;BME280;17386;43.846;25.950;2023-03-25T08:05:52;100752.63;;;17.32;66.72
20630;BME280;17386;43.846;25.950;2023-03-25T08:08:18;100763.66;;;17.27;66.67
20630;BME280;17386;43.846;25.950;2023-03-25T08:10:44;100761.28;;;17.22;66.89
20630;BME280;17386;43.846;25.950;2023-03-25T08:13:11;100761.25;;;17.37;64.55
20630;BME280;17386;43.846;25.950;2023-03-25T08:15:38;100759.50;;;17.36;64.01
20630;BME280;17386;43.846;25.950;2023-03-25T08:18:04;100752.53;;;17.33;63.93
20630;BME280;17386;43.846;25.950;2023-03-25T08:20:31;100745.50;;;17.59;65.98
20630;BME280;17386;43.846;25.950;2023-03-25T08:22:57;100746.50;;;17.85;64.85
20630;BME280;17386;43.846;25.950;2023-03-25T08:25:23;100740.97;;;18.01;63.97
20630;BME280;17386;43.846;25.950;2023-03-25T08:27:48;100733.38;;;17.81;63.22
20630;BME280;17386;43.846;25.950;2023-03-25T08:30:14;100735.84;;;17.69;64.59
20630;BME280;17386;43.846;25.950;2023-03-25T08:32:40;100734.75;;;18.00;63.47
20630;BME280;17386;43.846;25.950;2023-03-25T08:35:06;100733.78;;;18.01;63.40
20630;BME280;17386;43.846;25.950;2023-03-25T08:37:32;100731.88;;;18.16;62.81
20630;BME280;17386;43.846;25.950;2023-03-25T08:40:03;100722.25;;;18.39;61.61
20630;BME280;17386;43.846;25.950;2023-03-25T08:42:36;100727.66;;;18.65;61.20
20630;BME280;17386;43.846;25.950;2023-03-25T08:45:03;100710.47;;;18.80;60.51
20630;BME280;17386;43.846;25.950;2023-03-25T08:47:29;100714.59;;;18.46;61.11
20630;BME280;17386;43.846;25.950;2023-03-25T08:49:55;100716.06;;;18.77;60.65
20630;BME280;17386;43.846;25.950;2023-03-25T08:52:21;100717.91;;;18.89;60.28
20630;BME280;17386;43.846;25.950;2023-03-25T08:54:47;100707.00;;;19.03;61.06
20630;BME280;17386;43.846;25.950;2023-03-25T08:57:12;100705.34;;;19.26;60.53
20630;BME280;17386;43.846;25.950;2023-03-25T08:59:37;100700.91;;;18.76;62.05
20630;BME280;17386;43.846;25.950;2023-03-25T09:02:03;100698.94;;;18.78;62.49
20630;BME280;17386;43.846;25.950;2023-03-25T09:04:29;100693.13;;;19.09;61.30
20630;BME280;17386;43.846;25.950;2023-03-25T09:06:55;100702.66;;;19.26;61.40
20630;BME280;17386;43.846;25.950;2023-03-25T09:09:21;100684.66;;;19.27;60.74
20630;BME280;17386;43.846;25.950;2023-03-25T09:11:47;100699.69;;;19.42;59.98
20630;BME280;17386;43.846;25.950;2023-03-25T09:14:13;100697.81;;;19.55;59.43
20630;BME280;17386;43.846;25.950;2023-03-25T09:16:38;100699.38;;;19.83;59.20
20630;BME280;17386;43.846;25.950;2023-03-25T09:19:05;100694.44;;;19.77;59.47
20630;BME280;17386;43.846;25.950;2023-03-25T09:21:30;100697.06;;;20.14;58.39
20630;BME280;17386;43.846;25.950;2023-03-25T09:23:55;100697.31;;;20.46;57.23
20630;BME280;17386;43.846;25.950;2023-03-25T09:26:21;100681.75;;;20.61;56.13
20630;BME280;17386;43.846;25.950;2023-03-25T09:28:46;100685.47;;;20.25;57.27
20630;BME280;17386;43.846;25.950;2023-03-25T09:31:12;100688.44;;;20.44;57.59
20630;BME280;17386;43.846;25.950;2023-03-25T09:33:39;100680.03;;;20.71;56.29
20630;BME280;17386;43.846;25.950;2023-03-25T09:36:04;100680.31;;;20.90;55.03
20630;BME280;17386;43.846;25.950;2023-03-25T09:38:31;100662.41;;;21.00;55.12
20630;BME280;17386;43.846;25.950;2023-03-25T09:41:11;100669.38;;;20.92;53.21
20630;BME280;17386;43.846;25.950;2023-03-25T09:44:11;100666.06;;;21.33;52.46
20630;BME280;17386;43.846;25.950;2023-03-25T09:46:38;100666.88;;;21.88;50.50
20630;BME280;17386;43.846;25.950;2023-03-25T09:49:10;100665.13;;;22.30;49.87
20630;BME280;17386;43.846;25.950;2023-03-25T09:51:39;100667.03;;;22.60;47.98
20630;BME280;17386;43.846;25.950;2023-03-25T09:54:21;100658.56;;;22.54;48.59
20630;BME280;17386;43.846;25.950;2023-03-25T09:56:47;100663.47;;;22.60;47.82
20630;BME280;17386;43.846;25.950;2023-03-25T09:59:18;100662.41;;;22.82;47.13
20630;BME280;17386;43.846;25.950;2023-03-25T10:02:06;100653.41;;;22.72;46.58
20630;BME280;17386;43.846;25.950;2023-03-25T10:10:25;100644.03;;;23.06;46.07
20630;BME280;17386;43.846;25.950;2023-03-25T10:21:50;100637.28;;;23.41;44.07
20630;BME280;17386;43.846;25.950;2023-03-25T10:24:43;100644.25;;;23.53;45.55
20630;BME280;17386;43.846;25.950;2023-03-25T10:33:05;100642.63;;;23.62;44.59
20630;BME280;17386;43.846;25.950;2023-03-25T10:35:11;100629.63;;;23.65;45.72
20630;BME280;17386;43.846;25.950;2023-03-25T10:37:40;100627.91;;;23.84;46.13
20630;BME280;17386;43.846;25.950;2023-03-25T10:45:31;100613.91;;;22.38;49.55
20630;BME280;17386;43.846;25.950;2023-03-25T10:48:05;100612.22;;;22.05;52.99
20630;BME280;17386;43.846;25.950;2023-03-25T10:50:35;100604.09;;;22.05;53.97
20630;BME280;17386;43.846;25.950;2023-03-25T10:53:02;100603.78;;;22.41;53.65
20630;BME280;17386;43.846;25.950;2023-03-25T10:55:31;100607.41;;;22.81;51.33
20630;BME280;17386;43.846;25.950;2023-03-25T10:57:59;100591.25;;;23.01;50.16
20630;BME280;17386;43.846;25.950;2023-03-25T11:00:26;100590.00;;;23.24;48.36
20630;BME280;17386;43.846;25.950;2023-03-25T11:02:54;100588.91;;;23.27;47.65
20630;BME280;17386;43.846;25.950;2023-03-25T11:05:23;100585.88;;;23.30;44.54
20630;BME280;17386;43.846;25.950;2023-03-25T11:07:55;100582.03;;;23.32;43.89
20630;BME280;17386;43.846;25.950;2023-03-25T11:10:28;100579.81;;;23.76;44.67
20630;BME280;17386;43.846;25.950;2023-03-25T11:12:55;100570.16;;;24.40;43.60
20630;BME280;17386;43.846;25.950;2023-03-25T11:15:24;100563.34;;;24.07;44.14
20630;BME280;17386;43.846;25.950;2023-03-25T11:18:03;100563.06;;;24.10;44.74
20630;BME280;17386;43.846;25.950;2023-03-25T11:20:45;100545.22;;;24.54;46.02
20630;BME280;17386;43.846;25.950;2023-03-25T11:23:33;100549.91;;;24.89;45.14
20630;BME280;17386;43.846;25.950;2023-03-25T11:26:10;100538.44;;;24.68;45.74
20630;BME280;17386;43.846;25.950;2023-03-25T11:28:49;100535.44;;;24.98;44.44
20630;BME280;17386;43.846;25.950;2023-03-25T11:31:18;100535.31;;;24.90;44.67
20630;BME280;17386;43.846;25.950;2023-03-25T11:34:01;100526.63;;;25.50;42.74
20630;BME280;17386;43.846;25.950;2023-03-25T11:36:29;100516.31;;;25.35;42.90
20630;BME280;17386;43.846;25.950;2023-03-25T11:39:00;100522.81;;;25.43;42.80
20630;BME280;17386;43.846;25.950;2023-03-25T11:41:34;100520.56;;;25.56;43.92
20630;BME280;17386;43.846;25.950;2023-03-25T11:44:02;100509.06;;;25.62;43.88
20630;BME280;17386;43.846;25.950;2023-03-25T11:46:30;100502.72;;;25.53;42.29
20630;BME280;17386;43.846;25.950;2023-03-25T11:48:56;100499.81;;;25.37;41.96
20630;BME280;17386;43.846;25.950;2023-03-25T11:51:32;100505.75;;;25.94;39.71
20630;BME280;17386;43.846;25.950;2023-03-25T11:54:05;100509.97;;;25.88;39.92
20630;BME280;17386;43.846;25.950;2023-03-25T11:56:43;100495.50;;;25.26;39.29
20630;BME280;17386;43.846;25.950;2023-03-25T11:59:42;100500.22;;;25.24;41.90
20630;BME280;17386;43.846;25.950;2023-03-25T12:02:29;100488.34;;;24.80;42.09
20630;BME280;17386;43.846;25.950;2023-03-25T12:04:59;100500.81;;;24.73;41.01
20630;BME280;17386;43.846;25.950;2023-03-25T12:07:26;100494.22;;;24.75;41.88
20630;BME280;17386;43.846;25.950;2023-03-25T12:09:57;100488.72;;;25.30;40.12
20630;BME280;17386;43.846;25.950;2023-03-25T12:12:35;100490.41;;;25.31;38.30
20630;BME280;17386;43.846;25.950;2023-03-25T12:15:19;100477.31;;;25.88;34.95
20630;BME280;17386;43.846;25.950;2023-03-25T12:17:51;100481.47;;;25.57;36.42
20630;BME280;17386;43.846;25.950;2023-03-25T12:28:46;100468.69;;;27.12;34.61
20630;BME280;17386;43.846;25.950;2023-03-25T12:36:33;100470.81;;;25.81;36.86
20630;BME280;17386;43.846;25.950;2023-03-25T12:59:04;100434.94;;;26.20;35.23
20630;BME280;17386;43.846;25.950;2023-03-25T13:07:03;100418.59;;;26.12;34.58
20630;BME280;17386;43.846;25.950;2023-03-25T13:12:30;100420.03;;;25.46;35.26
20630;BME280;17386;43.846;25.950;2023-03-25T13:15:03;100421.41;;;25.50;35.42
20630;BME280;17386;43.846;25.950;2023-03-25T13:17:40;100428.78;;;24.51;37.28
20630;BME280;17386;43.846;25.950;2023-03-25T13:20:09;100426.28;;;24.02;39.27
20630;BME280;17386;43.846;25.950;2023-03-25T13:22:39;100411.66;;;24.13;39.84
20630;BME280;17386;43.846;25.950;2023-03-25T13:25:17;100419.19;;;24.19;39.97
20630;BME280;17386;43.846;25.950;2023-03-25T13:27:46;100408.94;;;23.76;40.34
20630;BME280;17386;43.846;25.950;2023-03-25T13:30:20;100400.25;;;23.53;40.82
20630;BME280;17386;43.846;25.950;2023-03-25T13:32:52;100404.38;;;23.77;40.47
20630;BME280;17386;43.846;25.950;2023-03-25T13:35:33;100404.53;;;23.65;40.40
20630;BME280;17386;43.846;25.950;2023-03-25T13:38:04;100407.63;;;23.90;39.79
20630;BME280;17386;43.846;25.950;2023-03-25T13:40:45;100413.31;;;23.87;40.09
20630;BME280;17386;43.846;25.950;2023-03-25T13:43:16;100405.69;;;23.63;40.36
20630;BME280;17386;43.846;25.950;2023-03-25T13:46:12;100396.03;;;23.41;41.52
20630;BME280;17386;43.846;25.950;2023-03-25T13:48:46;100402.03;;;23.15;41.75
20630;BME280;17386;43.846;25.950;2023-03-25T13:51:13;100400.75;;;23.10;42.24
20630;BME280;17386;43.846;25.950;2023-03-25T13:53:45;100407.19;;;22.99;42.57
20630;BME280;17386;43.846;25.950;2023-03-25T13:56:31;100404.84;;;22.85;43.43
20630;BME280;17386;43.846;25.950;2023-03-25T14:04:26;100400.72;;;22.81;43.28
20630;BME280;17386;43.846;25.950;2023-03-25T14:07:08;100402.28;;;22.74;44.12
20630;BME280;17386;43.846;25.950;2023-03-25T14:12:30;100399.38;;;22.06;46.50
20630;BME280;17386;43.846;25.950;2023-03-25T14:15:03;100398.72;;;21.83;47.36
20630;BME280;17386;43.846;25.950;2023-03-25T14:17:32;100401.16;;;21.86;48.05
20630;BME280;17386;43.846;25.950;2023-03-25T14:20:03;100410.00;;;21.67;49.00
20630;BME280;17386;43.846;25.950;2023-03-25T14:22:36;100399.81;;;21.71;49.72
20630;BME280;17386;43.846;25.950;2023-03-25T14:25:04;100379.34;;;21.78;49.79
20630;BME280;17386;43.846;25.950;2023-03-25T14:27:34;100385.78;;;21.87;50.28
20630;BME280;17386;43.846;25.950;2023-03-25T14:30:06;100376.50;;;21.79;50.60
20630;BME280;17386;43.846;25.950;2023-03-25T14:32:42;100378.59;;;22.06;50.09
20630;BME280;17386;43.846;25.950;2023-03-25T14:57:08;100359.72;;;21.76;52.52
20630;BME280;17386;43.846;25.950;2023-03-25T14:59:42;100367.72;;;21.87;52.77
20630;BME280;17386;43.846;25.950;2023-03-25T15:04:38;100363.00;;;21.89;53.14
20630;BME280;17386;43.846;25.950;2023-03-25T15:07:09;100368.78;;;22.05;52.89
20630;BME280;17386;43.846;25.950;2023-03-25T15:09:51;100374.03;;;21.97;53.85
20630;BME280;17386;43.846;25.950;2023-03-25T15:12:22;100372.72;;;21.92;54.39
20630;BME280;17386;43.846;25.950;2023-03-25T15:14:54;100365.81;;;21.78;55.10